Time;durP1;ratioP1;P1;durP2;ratioP2;P2;SDS_P1;SDS_P2;PMS_P1;PMS_P2;Temp;Humidity;BMP_temperature;BMP_pressure;BME280_temperature;BME280_humidity;BME280_pressure;Samples;Min_cycle;Max_cycle;Signal;HPM_P1;HPM_P2
2022/12/22 03:27:47;;;;;;;16.33;10.70;;;8.40;99.90;;;;;;5039841;28;20045;-72
2022/12/22 03:30:13;;;;;;;16.50;11.05;;;8.40;99.90;;;;;;5047241;28;20044;-72
2022/12/22 03:32:38;;;;;;;15.85;10.95;;;8.40;99.90;;;;;;5054547;28;20124;-73
2022/12/22 03:35:04;;;;;;;19.45;11.27;;;8.40;99.90;;;;;;5040555;28;20049;-72
2022/12/22 03:37:30;;;;;;;18.08;11.35;;;8.40;99.90;;;;;;5042370;28;20045;-72
2022/12/22 03:39:56;;;;;;;15.93;10.45;;;8.40;99.90;;;;;;5038509;28;20101;-73
2022/12/22 03:47:52;;;;;;;17.20;11.15;;;8.40;99.90;;;;;;5054974;28;20052;-72
2022/12/22 03:50:18;;;;;;;18.13;11.40;;;8.40;99.90;;;;;;5038574;28;20519;-72
2022/12/22 03:52:44;;;;;;;18.80;10.93;;;8.40;99.90;;;;;;5051872;28;20124;-72
2022/12/22 03:55:10;;;;;;;15.57;10.68;;;8.40;99.90;;;;;;5048242;28;20113;-72
2022/12/22 03:57:35;;;;;;;17.15;11.32;;;8.40;99.90;;;;;;5045035;28;20045;-72
2022/12/22 04:00:01;;;;;;;17.63;11.55;;;8.40;99.90;;;;;;5036736;28;20101;-72
2022/12/22 04:02:27;;;;;;;18.70;11.73;;;8.40;99.90;;;;;;5048151;28;20513;-72
2022/12/22 04:04:53;;;;;;;20.58;11.00;;;8.40;99.90;;;;;;5057316;28;20049;-72
2022/12/22 04:07:18;;;;;;;17.20;11.05;;;8.40;99.90;;;;;;5038359;28;20041;-72
2022/12/22 04:12:52;;;;;;;16.60;10.85;;;8.40;99.90;;;;;;5038198;28;20100;-72
2022/12/22 04:15:14;;;;;;;18.90;11.63;;;8.50;99.90;;;;;;5038742;28;20049;-73
2022/12/22 04:17:39;;;;;;;20.00;11.52;;;8.40;99.90;;;;;;5036607;28;20132;-72
2022/12/22 04:20:06;;;;;;;18.77;11.30;;;8.40;99.90;;;;;;5038077;28;20056;-72
2022/12/22 04:22:31;;;;;;;17.63;11.70;;;8.40;99.90;;;;;;5044897;28;20089;-72
2022/12/22 04:24:57;;;;;;;16.50;10.48;;;8.40;99.90;;;;;;5056854;28;20059;-73
2022/12/22 04:27:23;;;;;;;16.95;11.60;;;8.40;99.90;;;;;;5051453;28;20040;-73
2022/12/22 04:29:48;;;;;;;17.33;11.13;;;8.40;99.90;;;;;;5045479;28;20151;-72
2022/12/22 04:32:14;;;;;;;18.55;11.32;;;8.40;99.90;;;;;;5049396;28;20037;-73
2022/12/22 04:34:40;;;;;;;19.35;11.43;;;8.40;99.90;;;;;;5042550;28;20045;-72
2022/12/22 04:37:05;;;;;;;18.08;11.60;;;8.40;99.90;;;;;;5042085;28;20036;-72
2022/12/22 04:39:31;;;;;;;20.60;11.88;;;8.40;99.90;;;;;;5034790;28;20045;-72
2022/12/22 04:41:57;;;;;;;17.20;10.70;;;8.40;99.90;;;;;;5035690;28;20069;-72
2022/12/22 04:44:22;;;;;;;18.15;11.20;;;8.40;99.90;;;;;;5038625;28;20048;-71
2022/12/22 04:46:48;;;;;;;18.20;11.27;;;8.40;99.90;;;;;;5049655;28;20077;-71
2022/12/22 04:49:14;;;;;;;19.35;11.60;;;8.40;99.90;;;;;;5054549;28;20053;-71
2022/12/22 04:51:39;;;;;;;17.88;11.23;;;8.40;99.90;;;;;;5041855;28;20049;-71
2022/12/22 04:54:05;;;;;;;19.25;11.70;;;8.40;99.90;;;;;;5045778;28;20049;-71
2022/12/22 04:56:31;;;;;;;18.92;11.05;;;8.40;99.90;;;;;;5036322;28;20067;-71
2022/12/22 04:58:56;;;;;;;20.08;11.25;;;8.40;99.90;;;;;;5037484;28;20052;-71
2022/12/22 05:01:22;;;;;;;19.00;11.68;;;8.40;99.90;;;;;;5039830;28;20052;-71
2022/12/22 05:03:48;;;;;;;17.55;11.68;;;8.40;99.90;;;;;;5048723;28;20088;-72
2022/12/22 05:06:14;;;;;;;20.45;12.25;;;8.40;99.90;;;;;;5045283;28;20029;-71
2022/12/22 05:08:39;;;;;;;19.60;13.18;;;8.40;99.90;;;;;;5045488;28;20038;-71
2022/12/22 05:11:06;;;;;;;17.98;11.38;;;8.40;99.90;;;;;;5040319;28;20087;-71
2022/12/22 05:13:32;;;;;;;19.63;11.80;;;8.40;99.90;;;;;;5045152;28;20562;-71
2022/12/22 05:16:05;;;;;;;19.83;12.02;;;8.40;99.90;;;;;;5057394;28;20128;-71
2022/12/22 05:18:32;;;;;;;21.60;12.63;;;8.40;99.90;;;;;;5039211;28;20051;-71
2022/12/22 05:21:00;;;;;;;20.63;12.00;;;8.40;99.90;;;;;;5038622;28;20069;-71
2022/12/22 05:23:26;;;;;;;20.00;11.50;;;8.40;99.90;;;;;;5045872;28;20036;-71
2022/12/22 05:25:51;;;;;;;20.15;12.32;;;8.40;99.90;;;;;;5044653;28;20084;-71
2022/12/22 05:28:17;;;;;;;20.63;12.32;;;8.40;99.90;;;;;;5018512;28;20080;-71
2022/12/22 05:30:43;;;;;;;21.95;12.77;;;8.40;99.90;;;;;;5044124;28;20052;-71
2022/12/22 05:33:08;;;;;;;21.48;12.23;;;8.40;99.90;;;;;;5050751;28;20567;-71
2022/12/22 05:35:34;;;;;;;23.73;12.73;;;8.40;99.90;;;;;;5057088;28;20130;-71
2022/12/22 05:38:00;;;;;;;21.10;12.30;;;8.40;99.90;;;;;;5051162;28;20049;-71
2022/12/22 05:40:25;;;;;;;18.52;10.82;;;8.40;99.90;;;;;;5042192;28;20098;-70
2022/12/22 05:42:51;;;;;;;20.38;11.63;;;8.40;99.90;;;;;;5055390;28;20056;-71
2022/12/22 05:45:19;;;;;;;20.35;12.45;;;8.40;99.90;;;;;;5049532;28;20040;-72
2022/12/22 05:47:48;;;;;;;19.10;11.57;;;8.40;99.90;;;;;;5046996;28;20064;-71
2022/12/22 05:50:17;;;;;;;20.13;11.40;;;8.40;99.90;;;;;;5049502;28;20048;-72
2022/12/22 05:52:43;;;;;;;18.45;11.65;;;8.40;99.90;;;;;;5055021;28;20120;-72
2022/12/22 05:55:09;;;;;;;20.83;11.98;;;8.40;99.90;;;;;;5047484;28;20052;-72
2022/12/22 05:57:35;;;;;;;18.05;10.70;;;8.40;99.90;;;;;;5057510;28;20076;-73
2022/12/22 06:00:01;;;;;;;19.42;11.13;;;8.40;99.90;;;;;;5069496;28;20045;-72
2022/12/22 06:02:27;;;;;;;19.80;11.55;;;8.30;99.90;;;;;;5043066;28;20052;-73
2022/12/22 06:04:53;;;;;;;21.38;11.43;;;8.40;99.90;;;;;;5047893;28;20049;-71
2022/12/22 06:07:18;;;;;;;18.42;11.18;;;8.30;99.90;;;;;;5054468;28;20743;-71
2022/12/22 06:09:44;;;;;;;18.55;10.90;;;8.30;99.90;;;;;;5041960;28;20052;-71
2022/12/22 06:12:10;;;;;;;20.88;11.57;;;8.30;99.90;;;;;;5044042;28;20053;-72
2022/12/22 06:14:36;;;;;;;21.02;12.05;;;8.30;99.90;;;;;;5049364;28;20041;-72
2022/12/22 06:17:01;;;;;;;20.75;12.27;;;8.30;99.90;;;;;;5039185;28;20081;-72
2022/12/22 06:19:27;;;;;;;20.05;11.20;;;8.30;99.90;;;;;;5046382;28;20049;-71
2022/12/22 06:21:53;;;;;;;21.95;11.68;;;8.30;99.90;;;;;;5047271;28;20449;-71
2022/12/22 06:24:18;;;;;;;16.90;10.20;;;8.30;99.90;;;;;;5040161;28;20049;-71
2022/12/22 06:26:44;;;;;;;19.75;10.95;;;8.30;99.90;;;;;;5039879;28;20072;-71
2022/12/22 06:29:10;;;;;;;20.08;10.38;;;8.30;99.90;;;;;;5038951;28;20080;-71
2022/12/22 06:31:35;;;;;;;18.85;11.35;;;8.30;99.90;;;;;;5040721;28;20079;-71
2022/12/22 06:34:01;;;;;;;17.65;10.32;;;8.30;99.90;;;;;;5038352;28;20502;-71
2022/12/22 06:36:27;;;;;;;19.35;11.23;;;8.40;99.90;;;;;;5040369;28;20041;-71
2022/12/22 06:38:52;;;;;;;21.02;11.70;;;8.40;99.90;;;;;;5038602;28;20050;-70
2022/12/22 06:43:07;;;;;;;17.88;10.75;;;8.40;99.90;;;;;;5040243;28;20056;-71
2022/12/22 06:44:04;;;;;;;20.35;11.95;;;8.30;99.90;;;;;;5058997;28;20090;-71
2022/12/22 06:46:30;;;;;;;20.50;11.05;;;8.30;99.90;;;;;;5053923;28;21164;-71
2022/12/22 06:48:55;;;;;;;20.05;10.93;;;8.30;99.90;;;;;;5040779;28;20111;-71
2022/12/22 06:51:21;;;;;;;19.67;11.65;;;8.30;99.90;;;;;;5038292;28;20135;-71
2022/12/22 06:53:47;;;;;;;17.15;10.15;;;8.30;99.90;;;;;;5055779;28;20042;-72
2022/12/22 06:56:12;;;;;;;16.67;9.88;;;8.30;99.90;;;;;;5046392;28;20041;-73
2022/12/22 06:58:38;;;;;;;18.77;9.40;;;8.30;99.90;;;;;;5047871;28;20400;-73
2022/12/22 07:01:04;;;;;;;20.35;9.75;;;8.30;99.90;;;;;;5051710;28;20033;-72
2022/12/22 07:03:29;;;;;;;21.27;10.15;;;8.20;99.90;;;;;;5046857;28;20049;-73
2022/12/22 07:05:55;;;;;;;20.90;10.60;;;8.20;99.90;;;;;;5040274;28;20068;-71
2022/12/22 07:08:21;;;;;;;19.48;10.48;;;8.20;99.90;;;;;;5039647;28;20064;-71
2022/12/22 07:10:58;;;;;;;22.10;9.85;;;8.20;99.90;;;;;;5059878;28;20128;-71
2022/12/22 07:13:27;;;;;;;19.55;9.70;;;8.20;99.90;;;;;;5058060;28;20084;-71
2022/12/22 07:15:53;;;;;;;17.33;9.68;;;8.20;99.90;;;;;;5058736;28;20538;-71
2022/12/22 07:18:19;;;;;;;19.55;9.85;;;8.20;99.90;;;;;;5048299;28;20176;-71
2022/12/22 07:20:44;;;;;;;20.55;10.45;;;8.20;99.90;;;;;;5050487;28;20041;-71
2022/12/22 07:23:11;;;;;;;21.55;9.27;;;8.10;99.90;;;;;;5053525;28;20053;-71
2022/12/22 07:25:37;;;;;;;19.48;10.02;;;8.10;99.90;;;;;;5051451;28;20033;-71
2022/12/22 07:28:04;;;;;;;18.65;9.45;;;8.10;99.90;;;;;;5039663;28;20048;-71
2022/12/22 07:30:30;;;;;;;20.20;10.20;;;8.00;99.90;;;;;;5037849;28;20045;-71
2022/12/22 07:32:55;;;;;;;17.13;9.23;;;8.10;99.90;;;;;;5070480;28;20051;-71
2022/12/22 07:35:21;;;;;;;17.85;9.93;;;8.00;99.90;;;;;;5038492;28;20046;-71
2022/12/22 07:37:47;;;;;;;18.27;9.02;;;8.00;99.90;;;;;;5037345;28;20045;-71
2022/12/22 07:40:13;;;;;;;21.10;10.05;;;7.90;99.90;;;;;;5043305;28;20055;-71
2022/12/22 07:42:45;;;;;;;17.30;9.10;;;7.90;99.90;;;;;;5037056;28;20448;-71
2022/12/22 07:45:12;;;;;;;18.23;10.07;;;7.80;99.90;;;;;;5039367;28;20041;-71
2022/12/22 07:47:38;;;;;;;17.48;8.55;;;7.70;99.90;;;;;;5037059;28;20045;-71
2022/12/22 07:52:49;;;;;;;18.50;9.38;;;7.50;99.90;;;;;;5038020;28;20096;-71
2022/12/22 07:55:14;;;;;;;16.08;8.13;;;7.40;99.90;;;;;;5038950;28;20072;-71
2022/12/22 07:57:40;;;;;;;17.55;8.63;;;7.30;99.90;;;;;;5047126;28;20103;-71
2022/12/22 08:00:07;;;;;;;18.50;9.20;;;7.20;99.90;;;;;;5036695;28;20037;-71
2022/12/22 08:02:32;;;;;;;16.27;7.90;;;7.00;99.90;;;;;;5033788;28;20509;-71
2022/12/22 08:04:58;;;;;;;16.73;7.93;;;6.90;99.90;;;;;;5019054;28;20046;-71
2022/12/22 08:07:24;;;;;;;20.75;9.02;;;6.80;99.90;;;;;;5043474;28;20115;-70
2022/12/22 08:09:49;;;;;;;25.05;9.88;;;6.70;99.90;;;;;;5035732;28;20076;-70
2022/12/22 08:12:15;;;;;;;17.13;8.10;;;6.60;99.90;;;;;;5019359;28;20040;-71
2022/12/22 08:14:44;;;;;;;18.33;8.65;;;6.50;99.90;;;;;;5042629;28;20045;-71
2022/12/22 08:17:11;;;;;;;16.15;8.43;;;6.40;99.90;;;;;;5056253;28;20060;-71
2022/12/22 08:19:37;;;;;;;15.23;7.97;;;6.30;99.90;;;;;;5018640;28;20448;-71
2022/12/22 08:22:03;;;;;;;18.60;8.65;;;6.30;99.90;;;;;;5028862;28;20065;-71
2022/12/22 08:24:29;;;;;;;19.30;8.95;;;6.30;99.90;;;;;;5025950;28;20572;-71
2022/12/22 08:27:07;;;;;;;18.65;9.45;;;6.30;99.90;;;;;;5033164;28;20041;-71
2022/12/22 08:29:39;;;;;;;16.73;9.40;;;6.40;99.90;;;;;;5033867;28;20082;-72
2022/12/22 08:32:05;;;;;;;20.80;9.65;;;6.40;99.90;;;;;;5027524;28;20046;-72
2022/12/22 08:34:31;;;;;;;19.23;9.07;;;6.50;99.90;;;;;;5045231;28;20055;-72
2022/12/22 08:37:01;;;;;;;21.95;9.73;;;6.60;99.90;;;;;;5051001;28;20174;-72
2022/12/22 08:39:30;;;;;;;22.17;9.60;;;6.70;99.90;;;;;;5020907;28;20050;-69
2022/12/22 08:41:57;;;;;;;20.52;10.27;;;6.90;99.90;;;;;;5020859;28;20048;-70
2022/12/22 08:44:25;;;;;;;22.83;10.90;;;7.10;99.90;;;;;;5036130;28;20133;-72
2022/12/22 08:46:52;;;;;;;25.75;11.55;;;7.20;99.90;;;;;;5040684;28;20056;-72
2022/12/22 08:49:18;;;;;;;23.05;9.77;;;7.20;99.90;;;;;;5040561;28;20087;-73
2022/12/22 08:51:45;;;;;;;26.50;12.57;;;7.30;99.90;;;;;;5032106;28;20033;-74
2022/12/22 08:54:11;;;;;;;22.05;10.73;;;7.30;99.90;;;;;;5017141;28;20041;-70
2022/12/22 08:56:37;;;;;;;20.33;9.15;;;7.30;99.90;;;;;;5016487;28;20050;-72
2022/12/22 08:59:06;;;;;;;20.75;9.57;;;7.30;99.90;;;;;;5016743;28;20052;-71
2022/12/22 09:01:34;;;;;;;19.60;10.13;;;7.30;99.90;;;;;;5022999;28;20556;-69
2022/12/22 09:03:59;;;;;;;20.23;8.98;;;7.30;99.90;;;;;;5039258;28;20486;-74
2022/12/22 09:06:26;;;;;;;19.75;8.05;;;7.20;99.90;;;;;;5040135;28;20153;-71
2022/12/22 09:08:56;;;;;;;16.92;8.05;;;7.20;99.90;;;;;;5024332;28;20064;-73
2022/12/22 09:11:23;;;;;;;16.27;7.70;;;7.10;99.90;;;;;;5025444;28;20466;-74
2022/12/22 09:13:53;;;;;;;19.25;8.00;;;7.10;99.90;;;;;;5025988;28;20048;-74
2022/12/22 09:16:20;;;;;;;17.70;7.90;;;7.10;99.90;;;;;;5026198;28;20041;-73
2022/12/22 09:18:46;;;;;;;15.35;7.57;;;7.10;99.90;;;;;;5050185;28;20044;-72
2022/12/22 09:21:11;;;;;;;19.48;8.00;;;7.00;99.90;;;;;;5043517;28;20048;-74
2022/12/22 09:23:37;;;;;;;16.90;8.05;;;7.00;99.90;;;;;;5036207;28;20085;-73
2022/12/22 09:26:23;;;;;;;19.33;8.07;;;7.00;99.90;;;;;;5027070;28;20046;-73
2022/12/22 09:28:49;;;;;;;18.30;7.82;;;7.00;99.90;;;;;;5015575;28;20056;-72
2022/12/22 09:31:16;;;;;;;19.50;8.93;;;7.00;99.90;;;;;;5017159;28;20098;-72
2022/12/22 09:33:41;;;;;;;13.35;6.55;;;7.00;99.90;;;;;;5026456;28;20462;-72
2022/12/22 09:36:11;;;;;;;13.50;5.97;;;6.90;99.90;;;;;;5029805;28;20042;-74
2022/12/22 09:38:37;;;;;;;16.23;7.55;;;6.80;99.90;;;;;;5026131;28;20072;-74
2022/12/22 09:41:36;;;;;;;13.13;7.13;;;6.80;99.90;;;;;;5025512;28;20441;-72
2022/12/22 09:44:04;;;;;;;15.23;6.85;;;6.80;99.90;;;;;;5025666;28;20060;-73
2022/12/22 09:46:33;;;;;;;15.52;7.80;;;6.70;99.90;;;;;;5018889;28;20053;-74
2022/12/22 09:48:59;;;;;;;21.08;8.93;;;6.70;99.90;;;;;;5023535;28;20056;-74
2022/12/22 09:51:25;;;;;;;15.30;7.00;;;6.70;99.90;;;;;;5027880;28;20073;-74
2022/12/22 09:53:57;;;;;;;14.80;6.65;;;6.70;99.90;;;;;;5023313;28;20071;-74
2022/12/22 09:56:25;;;;;;;14.15;7.30;;;6.70;99.90;;;;;;5053730;28;20038;-73
2022/12/22 09:58:51;;;;;;;19.35;8.25;;;6.70;99.90;;;;;;5027955;28;20136;-75
2022/12/22 10:01:35;;;;;;;18.58;8.25;;;6.70;99.90;;;;;;5067636;28;20519;-73
2022/12/22 10:04:07;;;;;;;15.45;8.02;;;6.80;99.90;;;;;;5038672;28;20056;-73
2022/12/22 10:06:53;;;;;;;16.23;7.03;;;6.80;99.90;;;;;;5026155;28;20119;-74
2022/12/22 10:09:22;;;;;;;13.93;6.32;;;6.80;99.90;;;;;;5052211;28;20037;-74
2022/12/22 10:11:56;;;;;;;14.27;6.57;;;6.70;99.90;;;;;;5062206;28;20056;-74
2022/12/22 10:14:34;;;;;;;13.70;6.88;;;6.70;99.90;;;;;;5034202;28;20370;-73
2022/12/22 10:17:27;;;;;;;16.15;6.97;;;6.80;99.90;;;;;;5034679;28;20049;-73
2022/12/22 10:20:20;;;;;;;11.50;5.72;;;6.70;99.90;;;;;;5035452;28;20045;-74
2022/12/22 10:22:53;;;;;;;12.73;6.70;;;6.80;99.90;;;;;;5031611;28;20522;-72
2022/12/22 10:25:32;;;;;;;13.00;6.38;;;6.80;99.90;;;;;;5020946;28;20571;-71
2022/12/22 10:28:02;;;;;;;8.57;4.10;;;6.80;99.90;;;;;;5039338;28;20046;-72
2022/12/22 10:30:31;;;;;;;10.85;5.13;;;6.80;99.90;;;;;;5029969;28;20046;-71
2022/12/22 10:33:04;;;;;;;9.20;4.57;;;6.70;99.90;;;;;;5032239;28;20465;-73
2022/12/22 10:35:46;;;;;;;9.85;4.43;;;6.70;99.90;;;;;;5029288;28;20061;-74
2022/12/22 10:38:18;;;;;;;11.05;4.97;;;6.70;99.90;;;;;;5027255;28;20134;-74
2022/12/22 10:40:48;;;;;;;12.80;6.57;;;6.70;99.90;;;;;;5024095;28;20038;-74
2022/12/22 10:43:36;;;;;;;14.70;6.55;;;6.80;99.90;;;;;;5025435;28;20073;-74
2022/12/22 10:46:03;;;;;;;9.75;4.85;;;7.00;99.90;;;;;;5038200;28;20073;-74
2022/12/22 10:48:38;;;;;;;11.02;5.22;;;7.00;99.90;;;;;;5036382;28;20486;-72
2022/12/22 10:51:10;;;;;;;9.82;4.95;;;7.10;99.90;;;;;;5037516;28;20687;-73
2022/12/22 10:53:54;;;;;;;12.73;4.60;;;7.10;99.90;;;;;;5033379;28;20065;-72
2022/12/22 10:56:29;;;;;;;9.43;4.68;;;7.00;99.90;;;;;;5034170;28;20069;-73
2022/12/22 10:58:56;;;;;;;8.93;4.82;;;6.90;99.90;;;;;;5049823;28;20111;-74
2022/12/22 11:01:27;;;;;;;12.95;5.55;;;6.80;99.90;;;;;;5026356;28;20186;-73
2022/12/22 11:03:53;;;;;;;11.07;5.30;;;6.90;99.90;;;;;;5037609;28;20514;-74
2022/12/22 11:06:19;;;;;;;11.48;5.65;;;6.90;99.90;;;;;;5038891;28;20504;-74
2022/12/22 11:08:45;;;;;;;10.48;5.70;;;6.90;99.90;;;;;;5017664;28;20510;-74
2022/12/22 11:11:24;;;;;;;11.75;5.28;;;7.00;99.90;;;;;;5025741;28;20042;-74
2022/12/22 11:13:57;;;;;;;10.85;5.38;;;7.10;99.90;;;;;;5024420;28;20052;-73
2022/12/22 11:16:58;;;;;;;11.20;5.68;;;7.20;99.90;;;;;;5021783;28;20516;-74
2022/12/22 11:19:42;;;;;;;13.93;5.85;;;7.20;99.90;;;;;;5026485;28;20061;-74
2022/12/22 11:22:34;;;;;;;14.93;7.15;;;7.40;99.90;;;;;;5017884;28;20121;-73
2022/12/22 11:25:14;;;;;;;10.77;5.20;;;7.60;99.90;;;;;;5067263;28;20045;-73
2022/12/22 11:27:52;;;;;;;10.20;5.35;;;7.70;99.90;;;;;;5019787;28;20053;-72
2022/12/22 11:30:25;;;;;;;11.63;5.43;;;7.60;99.90;;;;;;5042252;28;20547;-73
2022/12/22 11:33:29;;;;;;;13.15;5.55;;;7.50;99.90;;;;;;5050814;28;20054;-72
2022/12/22 11:36:03;;;;;;;11.63;4.75;;;7.30;99.90;;;;;;5026136;28;20037;-75
2022/12/22 11:38:55;;;;;;;10.25;4.90;;;7.20;99.90;;;;;;5017138;28;20512;-72
2022/12/22 11:41:51;;;;;;;8.85;4.75;;;7.10;99.90;;;;;;5019770;28;20107;-72
2022/12/22 11:44:35;;;;;;;7.60;4.63;;;7.10;99.90;;;;;;5027119;28;20054;-75
2022/12/22 11:47:18;;;;;;;11.20;5.70;;;7.10;99.90;;;;;;5047214;28;20091;-75
2022/12/22 11:50:13;;;;;;;10.32;4.82;;;7.10;99.90;;;;;;5023329;28;20077;-71
2022/12/22 11:52:44;;;;;;;8.80;4.45;;;7.10;99.90;;;;;;5028845;28;20073;-72
2022/12/22 11:55:33;;;;;;;10.18;4.38;;;7.10;99.90;;;;;;5018571;28;20605;-74
2022/12/22 11:58:16;;;;;;;8.68;4.57;;;7.10;99.90;;;;;;5024235;28;20453;-74
2022/12/22 12:00:52;;;;;;;8.13;4.10;;;7.00;99.90;;;;;;5035802;28;20041;-74
2022/12/22 12:04:01;;;;;;;7.93;4.82;;;6.90;99.90;;;;;;5017842;28;20081;-74
2022/12/22 12:06:39;;;;;;;12.00;4.70;;;6.90;99.90;;;;;;4983652;28;20274;-74
2022/12/22 12:09:32;;;;;;;11.13;5.35;;;7.00;99.90;;;;;;5023378;28;20060;-74
2022/12/22 12:12:12;;;;;;;9.27;4.57;;;7.10;99.90;;;;;;5015585;28;20076;-72
2022/12/22 12:14:56;;;;;;;9.65;4.50;;;7.30;99.90;;;;;;5027977;28;20050;-72
2022/12/22 12:17:41;;;;;;;8.35;4.45;;;7.40;99.90;;;;;;5017338;28;20112;-74
2022/12/22 12:20:25;;;;;;;8.00;4.25;;;7.60;99.90;;;;;;5033505;28;20099;-74
2022/12/22 12:23:18;;;;;;;8.32;4.45;;;7.70;99.90;;;;;;5038281;28;20124;-75
2022/12/22 12:26:21;;;;;;;10.27;4.90;;;7.80;99.90;;;;;;5036003;28;20488;-75
2022/12/22 12:29:11;;;;;;;8.07;4.70;;;7.80;99.90;;;;;;5036978;28;20048;-74
2022/12/22 12:31:42;;;;;;;9.80;4.53;;;7.90;99.90;;;;;;5038979;28;20057;-72
2022/12/22 12:34:15;;;;;;;9.68;4.80;;;8.00;99.90;;;;;;5036136;28;20089;-73
2022/12/22 12:36:45;;;;;;;9.10;3.70;;;8.10;99.90;;;;;;5036880;28;20108;-74
2022/12/22 12:39:37;;;;;;;7.75;4.28;;;8.10;99.90;;;;;;5042987;28;20056;-75
2022/12/22 12:42:32;;;;;;;8.88;4.57;;;8.20;99.90;;;;;;5014858;28;20104;-74
2022/12/22 12:45:01;;;;;;;9.60;4.40;;;8.30;99.90;;;;;;5044003;28;20080;-74
2022/12/22 12:47:32;;;;;;;7.93;3.95;;;8.30;99.90;;;;;;5028487;28;20501;-74
2022/12/22 12:50:33;;;;;;;8.65;4.10;;;8.50;99.90;;;;;;5024868;28;20077;-75
2022/12/22 12:53:09;;;;;;;9.15;4.50;;;8.50;99.90;;;;;;5033747;28;20107;-73
2022/12/22 12:55:51;;;;;;;9.15;3.85;;;8.80;99.90;;;;;;5035464;28;20049;-72
2022/12/22 12:58:37;;;;;;;7.60;3.70;;;9.00;99.90;;;;;;5037387;28;20101;-72
2022/12/22 13:01:03;;;;;;;;;;;8.90;99.90;;;;;;5069535;28;20045;-72
2022/12/22 13:03:29;;;;;;;8.60;4.60;;;8.90;99.90;;;;;;5036487;28;19947;-74
2022/12/22 13:05:56;;;;;;;10.63;4.00;;;8.80;99.90;;;;;;5037801;28;20045;-74
2022/12/22 13:08:55;;;;;;;9.45;4.30;;;8.80;99.90;;;;;;5035512;28;20053;-74
2022/12/22 13:11:30;;;;;;;8.70;3.75;;;8.90;99.90;;;;;;5008837;28;20061;-71
2022/12/22 13:13:56;;;;;;;7.28;3.88;;;9.00;99.90;;;;;;5027601;28;20152;-73
2022/12/22 13:16:25;;;;;;;8.68;4.47;;;9.10;99.90;;;;;;5052833;28;20049;-74
2022/12/22 13:18:57;;;;;;;9.80;4.90;;;9.30;99.90;;;;;;5036698;28;20045;-73
2022/12/22 13:21:27;;;;;;;10.30;4.68;;;9.20;99.90;;;;;;5035497;28;20049;-75
2022/12/22 13:23:58;;;;;;;7.07;3.72;;;9.10;99.90;;;;;;5035884;28;20045;-75
2022/12/22 13:26:36;;;;;;;9.77;4.10;;;8.90;99.90;;;;;;5035035;28;20521;-73
2022/12/22 13:29:21;;;;;;;8.30;4.13;;;9.00;99.90;;;;;;5047083;28;20072;-72
2022/12/22 13:31:49;;;;;;;11.53;4.17;;;9.20;99.90;;;;;;5057812;28;20539;-74
2022/12/22 13:34:58;;;;;;;9.20;4.22;;;9.20;99.90;;;;;;5055681;28;20288;-70
2022/12/22 13:37:26;;;;;;;6.97;3.67;;;9.30;99.90;;;;;;5045728;28;20515;-73
2022/12/22 13:40:17;;;;;;;8.38;3.88;;;9.30;99.90;;;;;;5057591;28;20045;-72
2022/12/22 13:42:50;;;;;;;6.30;3.63;;;9.20;99.90;;;;;;5055337;28;20055;-74
2022/12/22 13:45:18;;;;;;;5.00;2.65;;;9.20;99.90;;;;;;5057525;28;20120;-72
2022/12/22 13:47:45;;;;;;;6.60;2.90;;;9.20;99.90;;;;;;5055864;28;20045;-72
2022/12/22 13:50:40;;;;;;;6.47;2.50;;;9.20;99.90;;;;;;5046191;28;20124;-70
2022/12/22 13:53:09;;;;;;;7.60;2.47;;;9.30;99.90;;;;;;5035645;28;20061;-72
2022/12/22 13:55:36;;;;;;;6.45;2.70;;;9.30;99.90;;;;;;5033847;28;20111;-71
2022/12/22 13:58:19;;;;;;;8.50;2.60;;;9.40;99.90;;;;;;5068911;28;20061;-71
2022/12/22 14:00:44;;;;;;;5.75;2.40;;;9.50;99.90;;;;;;5036520;28;20128;-71
2022/12/22 14:03:17;;;;;;;4.85;2.20;;;9.50;99.90;;;;;;5036085;28;20648;-73
2022/12/22 14:05:43;;;;;;;5.68;2.28;;;9.40;99.90;;;;;;5052611;28;20077;-73
2022/12/22 14:08:11;;;;;;;7.03;2.50;;;9.50;99.90;;;;;;5032320;28;20038;-74
2022/12/22 14:10:41;;;;;;;6.40;2.35;;;9.50;99.90;;;;;;5035492;28;20539;-75
2022/12/22 14:13:16;;;;;;;5.35;2.10;;;9.40;99.90;;;;;;5032882;28;20050;-77
2022/12/22 14:15:45;;;;;;;5.27;2.13;;;9.20;99.90;;;;;;5042685;28;20052;-77
2022/12/22 14:18:23;;;;;;;4.40;2.38;;;9.10;99.90;;;;;;5056741;28;20033;-73
2022/12/22 14:20:49;;;;;;;6.30;2.35;;;8.90;99.90;;;;;;5015373;28;20121;-76
2022/12/22 14:23:18;;;;;;;5.80;2.22;;;8.70;99.90;;;;;;5017224;28;20042;-75
2022/12/22 14:25:46;;;;;;;5.05;2.00;;;8.60;99.90;;;;;;5017881;28;20034;-74
2022/12/22 14:28:19;;;;;;;7.20;2.67;;;8.50;99.90;;;;;;5020634;28;20050;-75
2022/12/22 14:30:55;;;;;;;7.30;2.03;;;8.40;99.90;;;;;;5034923;28;20037;-73
2022/12/22 14:33:26;;;;;;;8.15;2.40;;;8.40;99.90;;;;;;5039253;28;20052;-75
2022/12/22 14:36:14;;;;;;;7.07;2.55;;;8.40;99.90;;;;;;5040910;28;20130;-75
2022/12/22 14:38:42;;;;;;;5.80;3.08;;;8.40;99.90;;;;;;5038089;28;20042;-74
2022/12/22 14:41:41;;;;;;;5.30;2.15;;;8.40;99.90;;;;;;5039509;28;20045;-74
2022/12/22 14:44:29;;;;;;;6.28;2.30;;;8.40;99.90;;;;;;5039539;28;20049;-74
2022/12/22 14:47:16;;;;;;;5.38;2.25;;;8.30;99.90;;;;;;5037160;28;20119;-73
2022/12/22 14:50:26;;;;;;;5.97;2.70;;;8.30;99.90;;;;;;5053095;28;20085;-75
2022/12/22 14:52:57;;;;;;;6.55;2.40;;;8.30;99.90;;;;;;4998171;28;20053;-74
2022/12/22 14:55:39;;;;;;;8.70;2.50;;;8.20;99.90;;;;;;5036535;28;20473;-74
2022/12/22 14:58:14;;;;;;;5.57;2.90;;;8.20;99.90;;;;;;5059951;28;20049;-74
2022/12/22 15:00:45;;;;;;;7.43;3.22;;;8.20;99.90;;;;;;5058831;28;20156;-76
2022/12/22 15:03:34;;;;;;;7.88;3.55;;;8.20;99.90;;;;;;5058422;28;20029;-75
2022/12/22 15:06:27;;;;;;;10.30;4.10;;;8.20;99.90;;;;;;5059833;28;20037;-75
2022/12/22 15:09:05;;;;;;;8.57;3.88;;;8.20;99.90;;;;;;5058176;28;20045;-75
2022/12/22 15:11:32;;;;;;;5.55;2.70;;;8.20;99.90;;;;;;5030579;28;20060;-76
2022/12/22 15:14:00;;;;;;;7.32;3.42;;;8.20;99.90;;;;;;5045167;28;20032;-75
2022/12/22 15:16:26;;;;;;;6.47;3.67;;;8.20;99.90;;;;;;5073054;28;20086;-77
2022/12/22 15:18:52;;;;;;;7.43;3.40;;;8.10;99.90;;;;;;5059620;28;20064;-76
2022/12/22 15:21:19;;;;;;;7.15;3.40;;;8.10;99.90;;;;;;5057583;28;20120;-76
2022/12/22 15:23:45;;;;;;;6.05;3.90;;;8.10;99.90;;;;;;5058916;28;20057;-75
2022/12/22 15:26:11;;;;;;;7.15;3.03;;;8.10;99.90;;;;;;5053264;28;20104;-75
2022/12/22 15:28:37;;;;;;;6.78;4.03;;;8.00;99.90;;;;;;5036735;28;20046;-76
2022/12/22 15:31:08;;;;;;;6.75;3.65;;;7.90;99.90;;;;;;5038011;28;20068;-75
2022/12/22 15:33:33;;;;;;;7.57;3.90;;;7.90;99.90;;;;;;5035517;28;20069;-76
2022/12/22 15:36:00;;;;;;;7.20;3.40;;;7.80;99.90;;;;;;5038007;28;20056;-76
2022/12/22 15:38:25;;;;;;;7.60;4.00;;;7.80;99.90;;;;;;5037023;28;20045;-76
2022/12/22 15:40:51;;;;;;;6.47;3.55;;;7.80;99.90;;;;;;5038567;28;20128;-76
2022/12/22 15:43:17;;;;;;;7.28;3.80;;;7.70;99.90;;;;;;5038024;28;20045;-75
2022/12/22 15:45:44;;;;;;;6.22;3.40;;;7.70;99.90;;;;;;5038630;28;20498;-75
2022/12/22 15:48:25;;;;;;;6.95;3.63;;;7.70;99.90;;;;;;5037650;28;20057;-76
2022/12/22 15:50:52;;;;;;;6.43;4.40;;;7.70;99.90;;;;;;5035236;28;20120;-76
2022/12/22 15:53:19;;;;;;;6.32;4.35;;;7.80;99.90;;;;;;5037705;28;20037;-74
2022/12/22 15:55:48;;;;;;;7.55;4.30;;;7.80;99.90;;;;;;5035720;28;20046;-75
2022/12/22 15:58:19;;;;;;;9.48;4.88;;;7.80;99.90;;;;;;5037094;28;20073;-76
2022/12/22 16:00:45;;;;;;;8.93;4.97;;;7.80;99.90;;;;;;5037099;28;20093;-76
2022/12/22 16:03:12;;;;;;;9.00;5.30;;;7.80;99.90;;;;;;5035922;28;20038;-74
2022/12/22 16:05:39;;;;;;;7.32;4.70;;;7.80;99.90;;;;;;5037875;28;20080;-75
2022/12/22 16:08:13;;;;;;;8.98;5.28;;;7.80;99.90;;;;;;5035073;28;20049;-75
2022/12/22 16:10:40;;;;;;;8.80;5.10;;;7.90;99.90;;;;;;5037391;28;20042;-76
2022/12/22 16:13:11;;;;;;;8.52;5.70;;;7.90;99.90;;;;;;5035636;28;20054;-72
2022/12/22 16:15:37;;;;;;;7.15;4.75;;;7.90;99.90;;;;;;5037997;28;20073;-75
2022/12/22 16:18:03;;;;;;;9.32;5.53;;;7.90;99.90;;;;;;5036873;28;20045;-75
2022/12/22 16:20:35;;;;;;;9.95;5.05;;;7.90;99.90;;;;;;5035445;28;20041;-74
2022/12/22 16:23:03;;;;;;;7.97;5.38;;;8.00;99.90;;;;;;5037203;28;20045;-74
2022/12/22 16:25:37;;;;;;;9.27;5.07;;;7.90;99.90;;;;;;5034658;28;20042;-75
2022/12/22 16:28:04;;;;;;;10.27;5.35;;;7.90;99.90;;;;;;5037994;28;20048;-76
2022/12/22 16:30:32;;;;;;;9.70;5.45;;;7.80;99.90;;;;;;5035609;28;20049;-75
2022/12/22 16:32:59;;;;;;;10.90;6.20;;;7.80;99.90;;;;;;5036022;28;20045;-76
2022/12/22 16:35:28;;;;;;;12.00;5.78;;;7.80;99.90;;;;;;5038202;28;20044;-74
2022/12/22 16:37:58;;;;;;;9.50;5.97;;;7.80;99.90;;;;;;5035965;28;20056;-76
2022/12/22 16:40:25;;;;;;;10.52;5.82;;;7.80;99.90;;;;;;5036373;28;20119;-75
2022/12/22 16:42:59;;;;;;;10.30;6.35;;;7.80;99.90;;;;;;5032685;28;20121;-73
2022/12/22 16:45:30;;;;;;;11.85;7.05;;;8.20;99.90;;;;;;5034020;28;20120;-73
2022/12/22 16:47:59;;;;;;;9.23;5.80;;;7.70;99.90;;;;;;5035123;28;20689;-73